Terminal Aerodrome Forecast
Issued by NWS

Home | Current Version | Previous Version | Text Only | Print | Product List | Glossary On
Versions: 1 2 3 4 5 6 7 8 9 10 11 12 13 14 15 16 17 18 19 20 21
417
FTUS42 TJSJ 251739
TAFISX
TAF
TISX 251739Z 2518/2618 15007KT P6SM VCSH SCT024 BKN080
     FM252300 14008KT P6SM VCSH SCT022 SCT040 BKN100
     FM260400 15009KT P6SM -SHRA BKN030 BKN060 OVC090=

USA.gov is the U.S. government's official web portal to all federal, state and local government web resources and services.